Raiford, Florida
Current Conditions -  °F | °C
As of 8:35 PM on Sunday 23 Nov 2014 (Local Time) from K42J Reporting Station
Clear Clear  
Wind Chill: 73°   Ceiling: Unl
Heat Index: 73°   Visibility: 8mi
Dew Point: 72°   Wind: 9mph
Humidity: 94%   Direction: 210°SSW
Pressure: 29.91"   Gusts: NA
Location:  30.06°N, 82.24°W
Report Text: K42J 240135Z AUTO 21008KT 8SM CLR 23/22 A2991 RMK AO1 TSNO
Loading
Personal Weather Stations






























Interactive Weather Map New forecast layout! Learn more

10-Day Weather Forecast

Advertisements
Track Severe Weather on mobile